Time;durP1;ratioP1;P1;durP2;ratioP2;P2;SDS_P1;SDS_P2;PMS_P1;PMS_P2;Temp;Humidity;BMP_temperature;BMP_pressure;BME280_temperature;BME280_humidity;BME280_pressure;Samples;Min_cycle;Max_cycle;Signal;HPM_P1;HPM_P2
2024/01/25 00:02:22;;;;;;;;;;;;;;;12.56;45.84;100955.50;4922301;28;104924;-66
2024/01/25 00:04:48;;;;;;;;;;;;;;;12.54;45.96;100961.19;4919246;28;98830;-66
2024/01/25 00:07:14;;;;;;;;;;;;;;;12.53;46.02;100973.06;4927415;28;120303;-72
2024/01/25 00:09:40;;;;;;;;;;;;;;;12.54;45.82;100942.25;4925698;28;99206;-65
2024/01/25 00:12:06;;;;;;;;;;;;;;;12.55;46.08;100962.00;4924410;28;98020;-65
2024/01/25 00:14:32;;;;;;;;;;;;;;;12.52;46.27;100966.84;4946819;28;104233;-66
2024/01/25 00:16:58;;;;;;;;;;;;;;;12.53;46.08;100960.34;4936548;28;98259;-65
2024/01/25 00:19:24;;;;;;;;;;;;;;;12.53;45.88;100964.94;4926629;28;98224;-65
2024/01/25 00:21:51;;;;;;;;;;;;;;;12.53;45.99;100971.16;4927287;28;97786;-65
2024/01/25 00:24:16;;;;;;;;;;;;;;;12.53;46.07;100970.34;4929207;28;99482;-72
2024/01/25 00:26:43;;;;;;;;;;;;;;;12.52;46.15;100974.97;4922877;28;98723;-65
2024/01/25 00:29:09;;;;;;;;;;;;;;;12.53;46.09;100971.16;4939974;28;98951;-72
2024/01/25 00:31:34;;;;;;;;;;;;;;;12.53;45.92;100973.88;4925300;28;100473;-65
2024/01/25 00:34:01;;;;;;;;;;;;;;;12.52;46.02;100974.97;4938478;28;124816;-65
2024/01/25 00:36:27;;;;;;;;;;;;;;;12.53;45.96;100971.16;4940156;28;99520;-65
2024/01/25 00:38:53;;;;;;;;;;;;;;;12.52;45.88;100964.13;4921632;28;112222;-72
2024/01/25 00:41:20;;;;;;;;;;;;;;;12.53;45.97;100979.28;4927273;28;98282;-65
2024/01/25 00:43:46;;;;;;;;;;;;;;;12.53;46.05;100976.56;4936017;28;98125;-72
2024/01/25 00:46:12;;;;;;;;;;;;;;;12.53;45.92;100975.78;4942357;28;120840;-65
2024/01/25 00:48:42;;;;;;;;;;;;;;;12.54;46.25;100980.13;4924688;28;98141;-72
2024/01/25 00:51:09;;;;;;;;;;;;;;;12.52;46.07;100977.66;4927069;28;98182;-72
2024/01/25 00:53:35;;;;;;;;;;;;;;;12.52;45.95;100971.44;4925346;28;100000;-66
2024/01/25 00:56:01;;;;;;;;;;;;;;;12.53;45.93;100987.38;4930038;28;98159;-72
2024/01/25 00:58:27;;;;;;;;;;;;;;;12.52;46.23;100993.88;4937784;28;98422;-66
2024/01/25 01:00:54;;;;;;;;;;;;;;;12.52;46.08;100984.97;4928859;28;99389;-72
2024/01/25 01:03:20;;;;;;;;;;;;;;;12.53;46.07;100992.00;4944770;28;98352;-65
2024/01/25 01:05:46;;;;;;;;;;;;;;;12.53;45.99;100994.69;4922646;28;98407;-65
2024/01/25 01:08:13;;;;;;;;;;;;;;;12.52;45.83;101006.59;4921886;28;98106;-71
2024/01/25 01:10:39;;;;;;;;;;;;;;;12.53;45.93;100998.22;4927684;28;98278;-71
2024/01/25 01:13:05;;;;;;;;;;;;;;;12.53;45.85;101008.22;4957337;28;128273;-72
2024/01/25 01:15:30;;;;;;;;;;;;;;;12.53;45.84;101000.91;4940782;28;99869;-65
2024/01/25 01:17:57;;;;;;;;;;;;;;;12.53;45.92;101000.09;4930195;28;98056;-72
2024/01/25 01:20:23;;;;;;;;;;;;;;;12.52;45.94;100996.59;4927760;28;98140;-65
2024/01/25 01:22:50;;;;;;;;;;;;;;;12.51;46.02;101003.09;4945532;28;98823;-72
2024/01/25 01:25:16;;;;;;;;;;;;;;;12.52;45.93;100995.78;4927967;28;98025;-66
2024/01/25 01:27:42;;;;;;;;;;;;;;;12.51;45.97;101000.38;4954354;28;98275;-65
2024/01/25 01:30:09;;;;;;;;;;;;;;;12.52;46.07;100998.50;4926773;28;102389;-73
2024/01/25 01:32:35;;;;;;;;;;;;;;;12.51;45.99;100994.97;4940680;28;99238;-72
2024/01/25 01:35:01;;;;;;;;;;;;;;;12.51;46.00;100986.06;4940644;28;98544;-65
2024/01/25 01:37:27;;;;;;;;;;;;;;;12.52;46.09;100999.28;4930247;28;98130;-65
2024/01/25 01:39:55;;;;;;;;;;;;;;;12.51;46.07;100989.56;4930364;28;99942;-72
2024/01/25 01:42:22;;;;;;;;;;;;;;;12.52;46.07;101004.69;4927980;28;98190;-72
2024/01/25 01:44:49;;;;;;;;;;;;;;;12.51;45.88;101016.59;4930699;28;98250;-66
2024/01/25 01:47:15;;;;;;;;;;;;;;;12.52;46.10;101009.31;4934104;28;98525;-65
2024/01/25 01:49:41;;;;;;;;;;;;;;;12.51;46.00;101007.69;4940378;28;97827;-72
2024/01/25 01:52:07;;;;;;;;;;;;;;;12.50;46.07;101006.88;4945180;28;99598;-72
2024/01/25 01:54:33;;;;;;;;;;;;;;;12.51;46.04;101005.78;4929151;28;98440;-65
2024/01/25 01:57:00;;;;;;;;;;;;;;;12.51;45.92;101005.78;4942430;28;99997;-67
2024/01/25 01:59:26;;;;;;;;;;;;;;;12.51;46.04;101002.28;4922566;28;98305;-65
2024/01/25 02:01:52;;;;;;;;;;;;;;;12.51;46.43;101008.50;4942976;28;98347;-72
2024/01/25 02:04:18;;;;;;;;;;;;;;;12.51;45.95;101007.69;4921722;28;98154;-72
2024/01/25 02:06:45;;;;;;;;;;;;;;;12.51;45.92;101022.00;4934447;28;98113;-65
2024/01/25 02:09:12;;;;;;;;;;;;;;;12.51;45.92;101021.22;4926352;28;97956;-65
2024/01/25 02:11:38;;;;;;;;;;;;;;;12.51;45.81;101018.50;4932923;28;98068;-72
2024/01/25 02:14:06;;;;;;;;;;;;;;;12.51;46.14;101019.31;4939102;28;101044;-65
2024/01/25 02:16:32;;;;;;;;;;;;;;;12.51;46.16;101029.31;4942852;28;98110;-65
2024/01/25 02:18:58;;;;;;;;;;;;;;;12.49;46.01;101032.28;4940238;27;98232;-72
2024/01/25 02:21:25;;;;;;;;;;;;;;;12.50;45.88;101006.88;4928273;28;98241;-66
2024/01/25 02:23:51;;;;;;;;;;;;;;;12.51;45.91;101016.59;4926192;28;98191;-66
2024/01/25 02:26:17;;;;;;;;;;;;;;;12.50;46.07;101015.00;4940762;28;99315;-66
2024/01/25 02:28:43;;;;;;;;;;;;;;;12.50;45.84;101017.69;4940814;28;98095;-72
2024/01/25 02:31:09;;;;;;;;;;;;;;;12.49;45.97;101010.63;4932649;28;100006;-65
2024/01/25 02:33:35;;;;;;;;;;;;;;;12.50;45.93;101012.28;4923183;28;98232;-66
2024/01/25 02:36:01;;;;;;;;;;;;;;;12.50;46.00;101015.00;4939453;28;98393;-72
2024/01/25 02:38:27;;;;;;;;;;;;;;;12.49;45.92;101037.69;4924153;28;98072;-72
2024/01/25 02:40:53;;;;;;;;;;;;;;;12.49;45.94;101040.38;4917167;28;123192;-66
2024/01/25 02:43:20;;;;;;;;;;;;;;;12.49;46.12;101050.38;4940415;28;102611;-72
2024/01/25 02:45:48;;;;;;;;;;;;;;;12.48;46.06;101051.47;4925236;28;98383;-72
2024/01/25 02:48:14;;;;;;;;;;;;;;;12.46;45.93;101046.34;4956638;28;98466;-65
2024/01/25 02:50:40;;;;;;;;;;;;;;;12.45;46.09;101052.81;4922071;28;100123;-71
2024/01/25 02:53:06;;;;;;;;;;;;;;;12.44;45.76;101063.91;4936376;28;97920;-65
2024/01/25 02:55:32;;;;;;;;;;;;;;;12.43;46.05;101064.97;4941658;28;107403;-72
2024/01/25 02:57:58;;;;;;;;;;;;;;;12.42;46.07;101044.44;4929151;28;97920;-72
2024/01/25 03:00:25;;;;;;;;;;;;;;;12.41;46.03;101061.72;4932013;28;99859;-66
2024/01/25 03:02:50;;;;;;;;;;;;;;;12.40;45.88;101054.69;4930565;28;114709;-72
2024/01/25 03:05:17;;;;;;;;;;;;;;;12.38;45.94;101065.78;4925575;28;99080;-66
2024/01/25 03:07:43;;;;;;;;;;;;;;;12.37;46.19;101056.03;4931529;28;98322;-65
2024/01/25 03:10:09;;;;;;;;;;;;;;;12.34;46.01;101062.00;4928758;28;98196;-65
2024/01/25 03:12:35;;;;;;;;;;;;;;;12.34;46.05;101063.84;4926107;28;98152;-71
2024/01/25 03:15:01;;;;;;;;;;;;;;;12.33;46.07;101071.16;4923188;28;98420;-65
2024/01/25 03:17:27;;;;;;;;;;;;;;;12.32;46.04;101074.94;4939175;28;98196;-72
2024/01/25 03:19:53;;;;;;;;;;;;;;;12.31;46.22;101073.31;4955700;28;98587;-71
2024/01/25 03:22:19;;;;;;;;;;;;;;;12.31;45.89;101072.50;4921398;28;98622;-71
2024/01/25 03:24:46;;;;;;;;;;;;;;;12.30;45.95;101063.59;4934507;28;98067;-72
2024/01/25 03:27:14;;;;;;;;;;;;;;;12.29;45.94;101068.16;4951361;28;98405;-65
2024/01/25 03:29:43;;;;;;;;;;;;;;;12.28;46.08;101054.91;4926979;28;98437;-72
2024/01/25 03:32:10;;;;;;;;;;;;;;;12.27;46.02;101050.59;4929591;28;99949;-72
2024/01/25 03:34:36;;;;;;;;;;;;;;;12.26;46.06;101047.09;4923512;28;98699;-72
2024/01/25 03:37:02;;;;;;;;;;;;;;;12.25;45.90;101050.84;4926982;28;98144;-72
2024/01/25 03:39:28;;;;;;;;;;;;;;;12.23;46.16;101042.19;4924940;28;110339;-65
2024/01/25 03:41:54;;;;;;;;;;;;;;;12.24;46.16;101048.41;4940134;28;100086;-72
2024/01/25 03:44:20;;;;;;;;;;;;;;;12.22;46.19;101034.34;4921452;28;112796;-72
2024/01/25 03:46:46;;;;;;;;;;;;;;;12.22;46.14;101043.28;4921867;28;98403;-66
2024/01/25 03:49:12;;;;;;;;;;;;;;;12.21;46.08;101038.94;4924893;28;100143;-66
2024/01/25 03:51:38;;;;;;;;;;;;;;;12.21;46.22;101046.22;4939646;28;108554;-65
2024/01/25 03:54:05;;;;;;;;;;;;;;;12.20;46.03;101048.13;4936903;28;98274;-66
2024/01/25 03:56:31;;;;;;;;;;;;;;;12.20;46.07;101052.72;4921416;28;98175;-72
2024/01/25 03:58:57;;;;;;;;;;;;;;;12.19;45.98;101053.81;4936092;28;98073;-67
2024/01/25 04:01:23;;;;;;;;;;;;;;;12.18;46.19;101057.56;4925723;28;99957;-66
2024/01/25 04:03:49;;;;;;;;;;;;;;;12.18;46.21;101057.56;4922232;28;110592;-65
2024/01/25 04:06:15;;;;;;;;;;;;;;;12.17;46.03;101055.94;4925157;28;98416;-72
2024/01/25 04:08:41;;;;;;;;;;;;;;;12.17;46.04;101066.75;4923384;28;98903;-72
2024/01/25 04:11:09;;;;;;;;;;;;;;;12.16;46.09;101070.53;4926938;28;100048;-72
2024/01/25 04:13:35;;;;;;;;;;;;;;;12.14;46.08;101075.38;4924175;28;97869;-72
2024/01/25 04:16:01;;;;;;;;;;;;;;;12.16;46.06;101065.94;4924235;28;98298;-72
2024/01/25 04:18:27;;;;;;;;;;;;;;;12.14;46.06;101064.56;4922165;28;98342;-66
2024/01/25 04:20:53;;;;;;;;;;;;;;;12.15;46.06;101068.94;4924225;28;98090;-72
2024/01/25 04:23:19;;;;;;;;;;;;;;;12.14;46.15;101056.47;4940933;28;98847;-66
2024/01/25 04:25:45;;;;;;;;;;;;;;;12.14;45.99;101068.09;4928774;28;98122;-72
2024/01/25 04:28:11;;;;;;;;;;;;;;;12.14;46.12;101078.09;4941759;28;98197;-73
2024/01/25 04:30:37;;;;;;;;;;;;;;;12.14;46.04;101064.56;4943745;28;114556;-66
2024/01/25 04:33:04;;;;;;;;;;;;;;;12.13;46.10;101071.88;4924713;28;127520;-65
2024/01/25 04:35:31;;;;;;;;;;;;;;;12.13;46.28;101079.97;4936907;28;97935;-72
2024/01/25 04:37:57;;;;;;;;;;;;;;;12.13;46.12;101082.69;4933466;28;98370;-72
2024/01/25 04:40:23;;;;;;;;;;;;;;;12.13;46.11;101079.97;4923946;28;113666;-66
2024/01/25 04:42:49;;;;;;;;;;;;;;;12.13;46.08;101082.69;4939118;28;97981;-66
2024/01/25 04:45:15;;;;;;;;;;;;;;;12.12;45.88;101070.25;4926379;28;98028;-73
2024/01/25 04:47:41;;;;;;;;;;;;;;;12.12;46.00;101078.38;4925116;28;98528;-73
2024/01/25 04:50:08;;;;;;;;;;;;;;;12.13;46.06;101079.16;4922846;28;98063;-72
2024/01/25 04:52:36;;;;;;;;;;;;;;;12.12;46.00;101075.66;4942682;28;109955;-72
2024/01/25 04:55:03;;;;;;;;;;;;;;;12.12;46.16;101082.97;4946454;28;108667;-66
2024/01/25 04:57:29;;;;;;;;;;;;;;;12.12;45.87;101083.78;4941055;28;98021;-66
2024/01/25 04:59:55;;;;;;;;;;;;;;;12.12;46.11;101077.56;4922807;28;99747;-66
2024/01/25 05:02:21;;;;;;;;;;;;;;;12.11;46.04;101073.22;4942021;28;98056;-72
2024/01/25 05:04:47;;;;;;;;;;;;;;;12.10;46.00;101077.00;4930627;28;111079;-72
2024/01/25 05:07:13;;;;;;;;;;;;;;;12.10;46.07;101067.00;4930198;28;98265;-73
2024/01/25 05:09:39;;;;;;;;;;;;;;;12.09;45.82;101070.78;4926121;28;98519;-72
2024/01/25 05:12:05;;;;;;;;;;;;;;;12.09;46.18;101087.00;4940570;28;98048;-66
2024/01/25 05:14:31;;;;;;;;;;;;;;;12.09;46.10;101089.69;4923207;28;98974;-73
2024/01/25 05:16:57;;;;;;;;;;;;;;;12.09;46.23;101099.69;4925795;28;118372;-66
2024/01/25 05:19:25;;;;;;;;;;;;;;;12.08;45.98;101107.00;4941794;28;129669;-66
2024/01/25 05:21:51;;;;;;;;;;;;;;;12.08;46.00;101112.41;4928281;28;98386;-65
2024/01/25 05:24:17;;;;;;;;;;;;;;;12.08;46.09;101115.09;4926394;28;103081;-66
2024/01/25 05:26:43;;;;;;;;;;;;;;;12.08;45.86;101108.88;4943748;28;98461;-66
2024/01/25 05:29:10;;;;;;;;;;;;;;;12.08;46.01;101119.69;4923852;28;98547;-66
2024/01/25 05:31:36;;;;;;;;;;;;;;;12.06;46.17;101111.81;4944280;28;98127;-66
2024/01/25 05:34:02;;;;;;;;;;;;;;;12.07;46.05;101118.88;4927234;28;99581;-66
2024/01/25 05:36:28;;;;;;;;;;;;;;;12.08;46.21;101122.38;4928214;28;98479;-72
2024/01/25 05:38:54;;;;;;;;;;;;;;;12.07;46.04;101124.28;4938378;28;98219;-66
2024/01/25 05:41:20;;;;;;;;;;;;;;;12.06;45.93;101125.34;4940790;28;98249;-66
2024/01/25 05:43:46;;;;;;;;;;;;;;;12.07;46.04;101129.69;4929643;28;101121;-66
2024/01/25 05:46:12;;;;;;;;;;;;;;;12.06;46.15;101124.53;4922036;28;117462;-72
2024/01/25 05:48:39;;;;;;;;;;;;;;;12.03;45.97;101124.00;4922872;28;98380;-73
2024/01/25 05:51:05;;;;;;;;;;;;;;;12.06;46.08;101124.53;4937291;28;99002;-72
2024/01/25 05:53:32;;;;;;;;;;;;;;;12.06;46.12;101127.22;4934020;28;99720;-66
2024/01/25 05:55:58;;;;;;;;;;;;;;;12.05;46.04;101137.22;4923538;28;98097;-65
2024/01/25 05:58:24;;;;;;;;;;;;;;;12.05;46.13;101145.34;4923592;28;99174;-66
2024/01/25 06:00:50;;;;;;;;;;;;;;;12.03;46.08;101137.50;4918193;28;98140;-72
2024/01/25 06:03:16;;;;;;;;;;;;;;;12.04;45.95;101154.53;4937191;28;118285;-66
2024/01/25 06:05:42;;;;;;;;;;;;;;;12.03;46.15;101161.81;4924484;28;109047;-72
2024/01/25 06:08:08;;;;;;;;;;;;;;;12.03;46.19;101156.41;4943053;28;127874;-72
2024/01/25 06:10:34;;;;;;;;;;;;;;;12.03;46.17;101175.31;4938878;28;124254;-72
2024/01/25 06:13:00;;;;;;;;;;;;;;;12.02;45.98;101171.00;4935511;28;98283;-72
2024/01/25 06:15:26;;;;;;;;;;;;;;;12.03;46.04;101177.22;4922714;28;100032;-65
2024/01/25 06:17:53;;;;;;;;;;;;;;;12.02;46.00;101189.91;4920680;28;98271;-72
2024/01/25 06:20:18;;;;;;;;;;;;;;;12.03;46.13;101193.44;4921090;28;98158;-72
2024/01/25 06:22:44;;;;;;;;;;;;;;;12.03;46.08;101198.84;4919352;28;98066;-65
2024/01/25 06:25:10;;;;;;;;;;;;;;;12.03;45.88;101201.53;4913224;28;98342;-66
2024/01/25 06:27:36;;;;;;;;;;;;;;;12.02;45.99;101219.66;4924458;28;114266;-65
2024/01/25 06:30:03;;;;;;;;;;;;;;;12.02;46.03;101200.72;4917751;28;110713;-72
2024/01/25 06:32:29;;;;;;;;;;;;;;;12.03;46.11;101207.75;4938563;28;98408;-65
2024/01/25 06:34:55;;;;;;;;;;;;;;;12.02;45.92;101195.31;4922716;28;124892;-65
2024/01/25 06:37:21;;;;;;;;;;;;;;;12.04;45.95;101205.88;4926464;28;106849;-66
2024/01/25 06:39:47;;;;;;;;;;;;;;;12.03;46.14;101205.06;4939317;28;99971;-65
2024/01/25 06:42:13;;;;;;;;;;;;;;;12.03;46.18;101206.94;4922869;28;100764;-65
2024/01/25 06:44:39;;;;;;;;;;;;;;;12.02;46.02;101203.44;4927817;28;98445;-65
2024/01/25 06:47:05;;;;;;;;;;;;;;;12.03;46.03;101213.16;4955013;28;99230;-72
2024/01/25 06:49:31;;;;;;;;;;;;;;;12.03;46.18;101220.44;4921279;28;103588;-72
2024/01/25 06:51:57;;;;;;;;;;;;;;;12.02;45.93;101208.84;4935026;28;109344;-73
2024/01/25 06:54:24;;;;;;;;;;;;;;;12.03;46.00;101226.66;4919424;28;99287;-72
2024/01/25 06:56:51;;;;;;;;;;;;;;;12.03;45.96;101234.78;4929912;28;107760;-72
2024/01/25 06:59:17;;;;;;;;;;;;;;;12.03;45.92;101223.97;4925491;28;98364;-72
2024/01/25 07:01:43;;;;;;;;;;;;;;;12.04;45.90;101230.19;4924503;28;98155;-72
2024/01/25 07:04:09;;;;;;;;;;;;;;;12.04;46.06;101222.06;4925581;28;99980;-73
2024/01/25 07:06:35;;;;;;;;;;;;;;;12.04;46.18;101231.00;4938013;28;98205;-72
2024/01/25 07:09:02;;;;;;;;;;;;;;;12.03;46.04;101242.06;4926718;28;99442;-66
2024/01/25 07:11:29;;;;;;;;;;;;;;;12.04;46.05;101252.59;4925813;28;98884;-72
2024/01/25 07:13:55;;;;;;;;;;;;;;;12.05;46.09;101253.41;4931347;28;97815;-73
2024/01/25 07:16:22;;;;;;;;;;;;;;;12.05;45.97;101256.13;4920993;28;99613;-72
2024/01/25 07:18:48;;;;;;;;;;;;;;;12.06;45.93;101256.94;4935944;28;98052;-72
2024/01/25 07:21:13;;;;;;;;;;;;;;;12.07;45.95;101259.41;4933267;28;111755;-72
2024/01/25 07:23:39;;;;;;;;;;;;;;;12.07;46.04;101267.50;4917849;28;128645;-72
2024/01/25 07:26:05;;;;;;;;;;;;;;;12.08;45.97;101265.63;4920973;28;130434;-72
2024/01/25 07:28:31;;;;;;;;;;;;;;;12.10;45.77;101268.84;4939018;28;128582;-66
2024/01/25 07:30:58;;;;;;;;;;;;;;;12.12;46.13;101285.66;4956178;28;98155;-66
2024/01/25 07:33:24;;;;;;;;;;;;;;;12.13;45.88;101271.84;4921486;28;98442;-65
2024/01/25 07:35:51;;;;;;;;;;;;;;;12.13;46.03;101269.16;4935209;28;98536;-66
2024/01/25 07:38:17;;;;;;;;;;;;;;;12.14;46.10;101284.28;4937490;28;98195;-65
2024/01/25 07:40:43;;;;;;;;;;;;;;;12.16;45.86;101284.88;4935762;28;98023;-72
2024/01/25 07:43:09;;;;;;;;;;;;;;;12.17;45.92;101289.19;4925849;28;103906;-65
2024/01/25 07:45:35;;;;;;;;;;;;;;;12.18;46.09;101290.84;4923894;28;103308;-66
2024/01/25 07:48:01;;;;;;;;;;;;;;;12.19;45.98;101284.34;4920213;28;98350;-66
2024/01/25 07:50:27;;;;;;;;;;;;;;;12.19;45.91;101289.75;4926835;28;98436;-72
2024/01/25 07:52:54;;;;;;;;;;;;;;;12.22;45.89;101286.56;4926443;28;98195;-72
2024/01/25 07:55:20;;;;;;;;;;;;;;;12.24;45.77;101291.69;4923221;28;98318;-66
2024/01/25 07:57:46;;;;;;;;;;;;;;;12.29;45.89;101294.41;4926957;28;98807;-66
2024/01/25 08:00:13;;;;;;;;;;;;;;;12.29;45.93;101295.22;4919766;28;98239;-65
2024/01/25 08:02:41;;;;;;;;;;;;;;;12.31;46.03;101292.28;4926281;28;98027;-66
2024/01/25 08:05:08;;;;;;;;;;;;;;;12.33;45.93;101297.41;4920139;28;97987;-72
2024/01/25 08:07:34;;;;;;;;;;;;;;;12.38;46.06;101295.59;4920279;28;98023;-72
2024/01/25 08:10:00;;;;;;;;;;;;;;;12.40;46.10;101293.44;4940376;28;98003;-66
2024/01/25 08:12:26;;;;;;;;;;;;;;;12.40;45.79;101298.84;4942514;28;99717;-66
2024/01/25 08:14:52;;;;;;;;;;;;;;;12.43;46.01;101289.41;4918658;28;98414;-72
2024/01/25 08:17:18;;;;;;;;;;;;;;;12.47;45.74;101301.31;4938201;28;98410;-66
2024/01/25 08:19:46;;;;;;;;;;;;;;;12.47;45.68;101298.63;4925980;28;98277;-66
2024/01/25 08:22:12;;;;;;;;;;;;;;;12.48;45.66;101302.94;4919575;28;98259;-72
2024/01/25 08:24:39;;;;;;;;;;;;;;;12.49;45.81;101310.78;4927080;28;98414;-72
2024/01/25 08:27:07;;;;;;;;;;;;;;;12.48;46.22;101303.75;4926471;28;98228;-72
2024/01/25 08:29:33;;;;;;;;;;;;;;;12.50;45.72;101304.31;4940999;28;98052;-66
2024/01/25 08:31:59;;;;;;;;;;;;;;;12.52;45.95;101304.06;4927921;28;97929;-72
2024/01/25 08:34:25;;;;;;;;;;;;;;;12.55;46.11;101295.44;4924075;28;98464;-72
2024/01/25 08:36:51;;;;;;;;;;;;;;;12.58;45.64;101303.03;4938642;28;101047;-72
2024/01/25 08:39:17;;;;;;;;;;;;;;;12.61;45.86;101301.66;4938736;28;98018;-72
2024/01/25 08:41:45;;;;;;;;;;;;;;;12.68;45.83;101321.19;4934674;28;100047;-65
2024/01/25 08:44:11;;;;;;;;;;;;;;;12.69;45.89;101323.66;4923733;28;99660;-65
2024/01/25 08:46:37;;;;;;;;;;;;;;;12.73;45.56;101315.81;4920627;28;126327;-65
2024/01/25 08:49:08;;;;;;;;;;;;;;;12.77;45.75;101312.34;4928425;28;98198;-65
2024/01/25 08:51:34;;;;;;;;;;;;;;;12.83;45.41;101320.50;4926713;28;98082;-72
2024/01/25 08:54:00;;;;;;;;;;;;;;;12.91;45.80;101320.00;4925839;28;98258;-65
2024/01/25 08:56:26;;;;;;;;;;;;;;;12.99;45.42;101317.59;4933562;28;99069;-73
2024/01/25 08:58:53;;;;;;;;;;;;;;;13.12;45.23;101319.00;4937640;28;97960;-72
2024/01/25 09:01:19;;;;;;;;;;;;;;;13.24;45.23;101324.25;4935996;28;98913;-66
2024/01/25 09:03:45;;;;;;;;;;;;;;;13.25;45.58;101304.22;4929377;28;100159;-66
2024/01/25 09:06:12;;;;;;;;;;;;;;;13.29;45.43;101326.19;4922686;28;99121;-72
2024/01/25 09:08:38;;;;;;;;;;;;;;;13.34;45.64;101331.59;4926129;28;98254;-72
2024/01/25 09:11:04;;;;;;;;;;;;;;;13.46;45.07;101337.59;4929958;28;98325;-72
2024/01/25 09:13:32;;;;;;;;;;;;;;;13.64;45.04;101353.38;4930319;28;98261;-65
2024/01/25 09:15:58;;;;;;;;;;;;;;;13.91;45.20;101355.91;4942177;28;98033;-71
2024/01/25 09:18:25;;;;;;;;;;;;;;;14.01;45.20;101349.66;4946574;28;98277;-71
2024/01/25 09:20:51;;;;;;;;;;;;;;;14.29;45.04;101350.22;4940868;28;98546;-71
2024/01/25 09:23:17;;;;;;;;;;;;;;;14.38;44.92;101349.44;4940457;28;98032;-71
2024/01/25 09:25:44;;;;;;;;;;;;;;;14.75;44.43;101333.97;4924841;28;107688;-71
2024/01/25 09:28:13;;;;;;;;;;;;;;;15.11;44.49;101345.53;4957643;28;98016;-71
2024/01/25 09:30:40;;;;;;;;;;;;;;;15.38;44.24;101353.34;4927062;28;99975;-65
2024/01/25 09:33:06;;;;;;;;;;;;;;;15.83;44.05;101349.59;4932371;28;99909;-65
2024/01/25 09:35:32;;;;;;;;;;;;;;;16.89;43.07;101338.13;4927820;28;98247;-71
2024/01/25 09:37:59;;;;;;;;;;;;;;;16.97;43.75;101329.34;4927209;28;98196;-66
2024/01/25 09:40:25;;;;;;;;;;;;;;;17.25;43.59;101341.28;4925157;28;101703;-66
2024/01/25 09:42:52;;;;;;;;;;;;;;;17.79;43.33;101345.50;4950059;28;99501;-72
2024/01/25 09:45:18;;;;;;;;;;;;;;;18.42;42.95;101338.78;4947942;28;99293;-66
2024/01/25 09:47:45;;;;;;;;;;;;;;;19.30;42.38;101347.03;4926492;28;98213;-66
2024/01/25 09:50:11;;;;;;;;;;;;;;;19.59;42.53;101347.50;4925324;28;100800;-67
2024/01/25 09:52:38;;;;;;;;;;;;;;;20.24;42.26;101350.94;4942131;28;100135;-66
2024/01/25 09:55:08;;;;;;;;;;;;;;;20.43;42.31;101348.03;4945112;28;99290;-72
2024/01/25 09:57:36;;;;;;;;;;;;;;;19.98;43.11;101358.97;4929206;28;98266;-72
2024/01/25 10:00:02;;;;;;;;;;;;;;;19.90;43.15;101366.00;4943740;28;99762;-66
2024/01/25 10:02:28;;;;;;;;;;;;;;;19.72;43.41;101388.81;4938523;28;98352;-72
2024/01/25 10:04:55;;;;;;;;;;;;;;;19.46;43.66;101374.84;4938956;28;98346;-72
2024/01/25 10:07:43;;;;;;;;;;;;;;;19.14;44.10;101360.19;4927270;28;98984;-72
2024/01/25 10:10:10;;;;;;;;;;;;;;;19.25;43.86;101360.78;4923168;28;98178;-72
2024/01/25 10:12:37;;;;;;;;;;;;;;;18.93;44.31;101369.88;4923065;28;99447;-72
2024/01/25 10:15:04;;;;;;;;;;;;;;;19.11;43.94;101367.06;4942917;28;98573;-65
2024/01/25 10:17:30;;;;;;;;;;;;;;;18.90;44.22;101371.28;4923055;28;98125;-72
2024/01/25 10:19:57;;;;;;;;;;;;;;;18.85;44.28;101371.38;4920730;28;98342;-72
2024/01/25 10:22:23;;;;;;;;;;;;;;;18.55;44.55;101386.34;4928066;28;100229;-72
2024/01/25 10:24:53;;;;;;;;;;;;;;;18.35;44.70;101390.22;4939587;28;98403;-66
2024/01/25 10:27:19;;;;;;;;;;;;;;;18.13;44.83;101396.28;4928996;28;99708;-66
2024/01/25 10:29:45;;;;;;;;;;;;;;;18.05;44.81;101405.16;4924102;28;98440;-66
2024/01/25 10:32:11;;;;;;;;;;;;;;;17.94;44.79;101415.38;4934572;28;98147;-65
2024/01/25 10:34:38;;;;;;;;;;;;;;;17.83;44.80;101411.16;4942538;28;98086;-67
2024/01/25 10:37:07;;;;;;;;;;;;;;;17.65;45.12;101410.03;4943717;28;98143;-72
2024/01/25 10:39:33;;;;;;;;;;;;;;;17.55;45.03;101408.22;4940392;28;99670;-72
2024/01/25 10:42:00;;;;;;;;;;;;;;;17.49;45.11;101414.84;4929383;28;98654;-65
2024/01/25 10:44:26;;;;;;;;;;;;;;;17.57;44.89;101384.22;4936830;28;98384;-66
2024/01/25 10:46:54;;;;;;;;;;;;;;;17.72;44.65;101418.63;4927882;28;98286;-66
2024/01/25 10:49:21;;;;;;;;;;;;;;;17.66;44.97;101409.72;4941873;28;98601;-66
2024/01/25 10:51:48;;;;;;;;;;;;;;;17.61;44.83;101414.44;4937712;28;99279;-66
2024/01/25 10:54:14;;;;;;;;;;;;;;;17.59;44.95;101413.91;4922711;28;98490;-72
2024/01/25 10:56:44;;;;;;;;;;;;;;;17.51;44.92;101398.19;4923955;28;98543;-66
2024/01/25 10:59:13;;;;;;;;;;;;;;;17.50;44.82;101415.66;4925285;28;99531;-72
2024/01/25 11:01:45;;;;;;;;;;;;;;;17.35;44.89;101403.00;4923118;28;99141;-71
2024/01/25 11:04:18;;;;;;;;;;;;;;;17.15;45.35;101420.41;4922282;28;99243;-71
2024/01/25 11:06:47;;;;;;;;;;;;;;;17.14;45.17;101400.53;4924811;28;98445;-65
2024/01/25 11:09:20;;;;;;;;;;;;;;;17.00;45.10;101415.91;4941765;28;98084;-65
2024/01/25 11:11:48;;;;;;;;;;;;;;;16.89;45.37;101417.91;4918757;28;98153;-65
2024/01/25 11:14:16;;;;;;;;;;;;;;;16.97;45.21;101408.31;4931178;28;98359;-65
2024/01/25 11:16:44;;;;;;;;;;;;;;;16.91;45.26;101414.91;4928750;28;98058;-71
2024/01/25 11:19:19;;;;;;;;;;;;;;;16.95;44.97;101415.97;4922305;28;97840;-72
2024/01/25 11:21:47;;;;;;;;;;;;;;;16.96;44.99;101420.31;4938253;28;119064;-65
2024/01/25 11:24:19;;;;;;;;;;;;;;;16.96;44.98;101403.97;4937192;28;98174;-66
2024/01/25 11:26:46;;;;;;;;;;;;;;;16.87;45.12;101411.94;4927577;28;98416;-65
2024/01/25 11:29:20;;;;;;;;;;;;;;;16.95;44.88;101417.88;4923738;28;98448;-71
2024/01/25 11:31:46;;;;;;;;;;;;;;;16.96;44.89;101424.94;4941466;28;97887;-65
2024/01/25 11:34:13;;;;;;;;;;;;;;;16.91;44.97;101406.75;4923952;28;98289;-65
2024/01/25 11:36:39;;;;;;;;;;;;;;;16.81;45.06;101421.25;4922414;28;98394;-71
2024/01/25 11:39:06;;;;;;;;;;;;;;;16.77;45.05;101414.75;4929066;28;128584;-66
2024/01/25 11:41:32;;;;;;;;;;;;;;;16.78;45.24;101407.41;4924511;28;99840;-65
2024/01/25 11:43:58;;;;;;;;;;;;;;;16.78;45.15;101421.84;4929033;28;104819;-65
2024/01/25 11:46:24;;;;;;;;;;;;;;;16.74;45.24;101426.25;4931446;28;98074;-71
2024/01/25 11:48:50;;;;;;;;;;;;;;;16.76;45.19;101409.59;4939037;28;120665;-71
2024/01/25 11:51:16;;;;;;;;;;;;;;;16.70;45.08;101411.50;4934754;28;114552;-71
2024/01/25 11:53:42;;;;;;;;;;;;;;;16.66;45.04;101413.19;4928919;28;98160;-65
2024/01/25 11:56:14;;;;;;;;;;;;;;;16.62;45.34;101414.84;4928246;28;98736;-71
2024/01/25 11:58:40;;;;;;;;;;;;;;;16.71;45.04;101415.06;4940157;28;98219;-65
2024/01/25 12:01:07;;;;;;;;;;;;;;;16.68;45.11;101414.53;4926782;28;103750;-71
2024/01/25 12:03:36;;;;;;;;;;;;;;;16.86;44.90;101412.25;4944773;28;98936;-65
2024/01/25 12:06:04;;;;;;;;;;;;;;;16.91;44.95;101412.19;4925243;28;98399;-65
2024/01/25 12:08:36;;;;;;;;;;;;;;;16.94;44.80;101417.06;4927435;28;98244;-65
2024/01/25 12:11:09;;;;;;;;;;;;;;;17.06;44.70;101413.97;4926276;28;98717;-71
2024/01/25 12:13:42;;;;;;;;;;;;;;;17.08;44.70;101411.75;4939354;28;99342;-65
2024/01/25 12:16:12;;;;;;;;;;;;;;;17.16;44.70;101420.09;4953941;28;103197;-70
2024/01/25 12:18:39;;;;;;;;;;;;;;;17.13;44.74;101423.41;4925898;28;98297;-65
2024/01/25 12:21:05;;;;;;;;;;;;;;;17.19;44.87;101429.63;4913082;28;98297;-65
2024/01/25 12:23:35;;;;;;;;;;;;;;;17.17;44.88;101424.47;4932297;28;99315;-65
2024/01/25 12:26:08;;;;;;;;;;;;;;;17.08;44.77;101422.63;4920671;28;98419;-65
2024/01/25 12:28:35;;;;;;;;;;;;;;;17.13;44.93;101417.13;4924217;28;98340;-65
2024/01/25 12:31:03;;;;;;;;;;;;;;;17.09;44.93;101407.91;4925942;28;98391;-71
2024/01/25 12:33:29;;;;;;;;;;;;;;;17.05;44.92;101410.41;4942116;28;98542;-65